Flight Track Log - Related Links

Times and Time Zones

All times are in EDT time to prevent confusion due to time zone crossing. See the GGN7280 flight status page for this flight to view local times or setup timezone preferences in your user account.

Time Position Orientation Groundspeed Altitude Reporting Facility
EDT Latitude Longitude Course Direction KTS MPH feet Rate Location/Type
Thu 09:36:53 AM 43.6667 -79.5833 206° Southwest 70 81 800  Level Toronto Center
Thu 09:37:53 AM 43.6167 -79.6167 206° Southwest 160 184 2,300 1,500 Climbing Toronto Center
Thu 09:38:53 AM 43.5833 -79.5833 144° Southeast 160 184 3,800 1,400 Climbing Toronto Center
Thu 09:39:53 AM 43.5500 -79.5167 125° Southeast 200 230 5,100 1,300 Climbing Toronto Center
Thu 09:40:53 AM 43.5333 -79.4500 109° East 210 242 6,400 1,250 Climbing Toronto Center
Thu 09:41:53 AM 43.5167 -79.3500 103° East 220 253 7,600 800 Climbing Toronto Center
Thu 09:42:53 AM 43.5167 -79.2667 90° East 240 276 8,000 200 Climbing Toronto Center
Thu 09:43:53 AM 43.5000 -79.1500 101° East 270 311 8,000  Level Toronto Center
Thu 09:44:53 AM 43.4833 -79.0667 105° East 270 311 8,000  Level Toronto Center
Thu 09:45:53 AM 43.4833 -78.9500 90° East 270 311 8,000 800 Level Toronto Center
Thu 09:46:53 AM 43.4667 -78.8500 103° East 250 288 9,600 1,450 Climbing Toronto Center
Thu 09:47:53 AM 43.4500 -78.7667 105° East 230 265 10,900 1,300 Climbing Toronto Center
Thu 09:48:53 AM 43.4500 -78.6833 90° East 230 265 12,200 1,300 Climbing Toronto Center
Thu 09:49:53 AM 43.4333 -78.6000 105° East 230 265 13,500 1,350 Climbing Toronto Center
Thu 09:50:53 AM 43.4333 -78.5000 90° East 230 265 14,900 1,400 Climbing Toronto Center
Thu 09:51:53 AM 43.4000 -78.4167 119° Southeast 230 265 16,300 1,350 Climbing Toronto Center
Thu 09:52:53 AM 43.4000 -78.3167 90° East 230 265 17,600 1,036 Climbing Toronto Center
Thu 09:53:43 AM 43.4047 -78.2944 74° East 231 266 18,200 764 Climbing Cleveland Center
Thu 09:54:43 AM 43.3903 -78.2008 102° East 236 272 19,000 400 Climbing Cleveland Center
Thu 09:55:43 AM 43.3753 -78.0869 100° East 255 293 19,000  Level Cleveland Center
Thu 09:56:43 AM 43.3603 -77.9733 100° East 278 320 19,000  Level Cleveland Center
Thu 09:57:43 AM 43.3450 -77.8569 100° East 300 345 19,000  Level Cleveland Center
Thu 09:58:43 AM 43.3319 -77.7378 99° East 306 352 19,000  Level Cleveland Center
Thu 09:59:43 AM 43.3164 -77.6214 100° East 306 352 19,000  Level Cleveland Center
Thu 10:00:43 AM 43.2989 -77.5081 102° East 311 358 19,000  Level Cleveland Center
Thu 10:01:43 AM 43.2853 -77.3919 99° East 311 358 19,000  Level Cleveland Center
Thu 10:03:20 AM 43.2614 -77.2139 100° East 308 354 19,000  Level Boston Center
Thu 10:03:53 AM 43.2333 -77.1167 112° Southeast 300 345 19,000  Level Toronto Center
Thu 10:04:53 AM 43.2167 -77.0000 101° East 300 345 19,000  Level Toronto Center
Thu 10:05:53 AM 43.2167 -76.8833 90° East 300 345 19,000  Level Toronto Center
Thu 10:06:54 AM 43.2000 -76.7667 101° East 310 357 19,000  Level Toronto Center
Thu 10:07:53 AM 43.1667 -76.6667 115° Southeast 310 357 19,000  Level Toronto Center
Thu 10:08:53 AM 43.1500 -76.5500 101° East 310 357 19,000  Level Toronto Center
Thu 10:09:53 AM 43.1333 -76.4333 101° East 300 345 19,000  Level Toronto Center
Thu 10:10:53 AM 43.1333 -76.3167 90° East 300 345 19,000  Level Toronto Center
Thu 10:11:32 AM 43.1336 -76.2900 89° East 298 343 19,000  Level Boston Center
Thu 10:12:32 AM 43.1164 -76.1781 102° East 298 343 19,000  Level Boston Center
Thu 10:13:32 AM 43.0992 -76.0658 102° East 298 343 19,000  Level Boston Center
Thu 10:14:32 AM 43.0819 -75.9511 102° East 298 343 19,000  Level Boston Center
Thu 10:15:32 AM 43.0669 -75.8339 100° East 298 343 19,000  Level Boston Center
Thu 10:16:32 AM 43.0494 -75.7192 102° East 298 343 19,000  Level Boston Center
Thu 10:17:32 AM 43.0317 -75.6072 102° East 298 343 19,000  Level Boston Center
Thu 10:18:32 AM 43.0139 -75.4900 102° East 298 343 19,000  Level Boston Center
Thu 10:19:32 AM 42.9961 -75.3756 102° East 298 343 19,000  Level Boston Center
Thu 10:20:32 AM 42.9781 -75.2667 103° East 298 343 19,000 -200 Level Boston Center
Thu 10:21:32 AM 42.9625 -75.1383 99° East 305 351 18,600 -550 Descending Boston Center
Thu 10:22:32 AM 42.9422 -75.0211 103° East 305 351 17,900 -684 Descending Boston Center
Thu 10:23:26 AM 42.9281 -74.9072 100° East 331 381 17,300 -945 Descending Boston Center
Thu 10:24:39 AM 42.9061 -74.7644 102° East 333 383 15,900 -1,299 Descending Boston Center
Thu 10:25:40 AM 42.8836 -74.6389 104° East 336 387 14,400 -1,722 Descending Boston Center
Thu 10:26:34 AM 42.8667 -74.5336 102° East 319 367 12,600 -1,826 Descending Boston Center
Thu 10:27:35 AM 42.8686 -74.4231 89° East 297 342 10,900 -1,525 Descending Boston Center
Thu 10:28:36 AM 42.8772 -74.2931 85° East 310 357 9,500 -1,357 Descending Boston Center
Thu 10:29:30 AM 42.8828 -74.1969 85° East 311 358 8,300 -1,537 Descending Boston Center
Thu 10:30:37 AM 42.8869 -74.0667 87° East 295 339 6,400 -1,594 Descending Boston Center
Thu 10:31:38 AM 42.8903 -73.9647 87° East 261 300 4,900 -1,512 Descending Boston Center
Thu 10:32:44 AM 42.8958 -73.8600 86° East 255 293 3,200 -1,190 Descending Boston Center
Thu 10:33:44 AM 42.8697 -73.7858 116° Southeast 246 283 2,400 -982 Descending Boston Center
Thu 10:34:34 AM 42.8172 -73.8100 199° South 152 175 1,400 -927 Descending Boston Center
Thu 10:35:34 AM 42.7778 -73.8092 179° South 128 147 700 -700 Descending Boston Center
Thu 10:39:00 AM 42.7491 -73.8020 North  Level Estimated
Thu 10:46:00 AM 42.7491 -73.8020 North  Level Estimated

Login

Don't have an account? Register now (free) for customized features, flight alerts, and more!